Claudiu Puscas

Recruteur en chef - Viitorul
20 Nov 2027
Samedi
Processus

Personnalité

Adaptabilité (7) Ambition (11) Controverse (2) Loyauté (14) Pression (18) Professionnalisme (17) Sportivité (7) Tempérament (3)

Profil

Style d'entraînement Démocratique
Diplôme Continental Pro
Détermination 3
Gestion des joueurs 5
Motivation 7
Discipline 5
Satisfaction professionnelle
93%
Fatigue
0%
Rôle Recruteur en chef
Salaire 40.3K p/s
Contrat 14.03.2029

Performance

Comportement Bon
Efficacité de l'entraînement
40%
Développement des joueurs
30%
Prévention des blessures
20%
Mise en place tactique
50%

Événements récents

A participé à une réunion de recrutement maintenant
A participé à une réunion de recrutement 7j
A recommandé une cible de transfert 7j
A participé à une réunion de recrutement 7j
A participé à une réunion de recrutement 14j
A recommandé une cible de transfert 14j
A participé à une réunion de recrutement 14j
A participé à une réunion de recrutement 21j

Suivi en cours

205
Joueur Club Statut Capacité Confiance Observé Dernière observation Dernier vote
Niall Ennis Blackpool Actif 118 / 110 40% 3 02.08.2027 -
Sam Bell Bristol City Actif 119 / 128 40% 3 02.08.2027 -
Fabrizio Cavegn Bristol Rovers Actif 116 / 114 40% 3 28.07.2027 -
Ronan Hale Gillingham Actif 115 / 116 40% 2 28.07.2027 -
Josh Coburn Millwall Actif 122 / 122 40% 3 26.07.2027 -
Bradley Fink Wycombe Wanderers Actif 108 / 118 40% 2 26.07.2027 -
Yuki Ohashi Blackburn Rovers Actif 124 / 119 40% 2 26.07.2027 -
Lorent Tolaj Plymouth Argyle Actif 116 / 120 40% 5 21.06.2027 -
Aaron Collins Milton Keynes Dons Actif 122 / 117 40% 6 21.06.2027 -
Camillo Tavernelli Arezzo Perdu 113 / 113 40% 1 21.06.2027 -
Kelly Saravanan Salford City Actif 118 / 110 40% 2 14.06.2027 -
Rui Costa Port Vale Actif 112 / 113 40% 4 14.06.2027 -
Daniel Udoh Salford City Actif 105 / 103 40% 2 29.05.2027 -
Aaron Drinan Swindon Town Actif 108 / 109 40% 3 29.05.2027 -
Camilo Durán Bloemfontein Celtic Actif 112 / 124 40% 8 28.05.2027 -
John Yeboah Venezia Actif 121 / 114 40% 5 28.05.2027 -
Giuseppe Di Serio Spezia Actif 124 / 126 40% 1 27.05.2027 -
Mees Rijks Bristol Rovers Actif 112 / 110 40% 4 26.05.2027 -
Lewis McCann Fleetwood Town Actif 95 / 104 40% 2 26.05.2027 -
Thalys Almería Actif 123 / 122 40% 1 26.05.2027 -
Sam Nombe Milton Keynes Dons Actif 109 / 107 40% 5 25.05.2027 -
Jérémy Le Douaron Palermo Actif 123 / 121 40% 2 25.05.2027 -
Malik Mothersille Stockport County Actif 112 / 120 40% 2 24.05.2027 -
Ettore Gliozzi Mantova Actif 121 / 111 40% 1 24.05.2027 -
Chico Banza Zamalek Actif 105 / 107 40% 3 22.05.2027 -
Tammer Kumar West Bromwich Albion Actif 122 / 117 40% 2 22.05.2027 -
Justin Obikwu Queens Park Rangers Actif 96 / 107 40% 2 21.05.2027 -
Josh Koroma Leyton Orient Actif 107 / 101 40% 2 21.05.2027 -
Christian Saydee Wigan Athletic Actif 113 / 117 40% 1 21.05.2027 -
Silvio Merkaj Vicenza Actif 116 / 116 40% 3 19.05.2027 -
Kyle Wootton Stockport County Actif 121 / 122 40% 6 19.05.2027 -
Callum Lang Preston Actif 112 / 121 40% 3 17.05.2027 -
Calum Kavanagh Oldham Athletic Actif 102 / 105 40% 3 17.05.2027 -
Aidomo Emakhu Oxford United Actif 116 / 120 40% 2 16.05.2027 -
David Okereke Cremonese Actif 125 / 125 40% 3 14.05.2027 -
Shayne Lavery Cambridge United Actif 105 / 103 40% 3 13.05.2027 -
Jalen Blesa Rio Ave Actif 118 / 123 40% 2 12.05.2027 -
Isaac Success El Masry Actif 123 / 109 40% 1 10.05.2027 -
Jake Beesley Burton Albion Actif 96 / 98 40% 3 08.05.2027 -
Emil Riis Leicester City Actif 119 / 126 40% 1 08.05.2027 -
Florin Tănase Omonoia Actif 130 / 136 40% 4 05.05.2027 -
Harvey Blair Portsmouth Actif 122 / 120 40% 1 05.05.2027 -
Javi Zarzo Gubbio Actif 105 / 93 40% 1 30.04.2027 -
Marcus Browne AFC Wimbledon Actif 112 / 105 40% 2 28.04.2027 -
Matteo Rover Reggiana Actif 119 / 120 40% 1 27.04.2027 -
Matty Stevens AFC Wimbledon Actif 102 / 109 40% 3 22.04.2027 -
German Onugkha Rodina Actif 119 / 116 40% 4 19.04.2027 -
Elijah Adebayo Luton Town Actif 128 / 130 40% 6 17.04.2027 -
Marezi Portsmouth Actif 122 / 116 40% 3 15.04.2027 -
Giacomo Zecca Torres Actif 112 / 112 40% 1 13.04.2027 -
Tyreece Campbell Charlton Athletic Actif 116 / 127 40% 4 11.04.2027 -
Wandile Duba Maritzburg United Actif 114 / 98 40% 3 09.04.2027 -
Dale Taylor Blackpool Actif 116 / 110 40% 1 09.04.2027 -
David Miculescu FCSB Actif 123 / 120 40% 10 04.04.2027 -
Kamran Aliev SKA Khabarovsk Actif 98 / 102 40% 2 03.04.2027 -
Lamine Cissé Peterborough United Actif 117 / 130 40% 4 30.03.2027 -
Ali Youssef Apollon Actif 119 / 119 40% 5 29.03.2027 -
Stephen Humphrys Bradford City Actif 111 / 113 40% 3 29.03.2027 -
Sam Smith Wrexham Actif 114 / 116 40% 1 28.03.2027 -
Giorgi Kvernadze Frosinone Actif 128 / 119 40% 1 20.03.2027 -
Oli McBurnie Hull City Actif 137 / 135 40% 1 19.03.2027 -
Lamine Diakité Djoliba Actif 97 / 95 40% 1 19.03.2027 -
Mihailo Ivanović Millwall Actif 128 / 124 40% 2 18.03.2027 -
Samuel Tetteh Ashanti Gold Actif 100 / 105 40% 1 17.03.2027 -
Victor Adeboyejo El Masry Actif 98 / 99 40% 1 16.03.2027 -
Samuel Kalu Botev Plovdiv Actif 117 / 109 40% 6 15.03.2027 -
Armstrong Oko-Flex Levski Actif 114 / 124 40% 2 15.03.2027 -
Hamdi Labidi Olympique Akbou Actif 99 / 93 40% 2 15.03.2027 -
Mathias Jørgensen Blackburn Rovers Actif 128 / 116 40% 2 13.03.2027 -
Jamie Reid Stevenage Actif 102 / 112 40% 1 12.03.2027 -
Davis Keillor-Dunn Wrexham Actif 112 / 116 40% 1 11.03.2027 -
Enzo López Cosenza Actif 111 / 105 40% 1 05.03.2027 -
Victor Torp Coventry City Actif 122 / 133 40% 1 04.03.2027 -
Brayan Gil Baltika Actif 128 / 130 40% 1 26.02.2027 -
Ante Aralica Lokomotiv Sofia Actif 105 / 99 40% 2 18.02.2027 -
Etiosa Ighodaro Kaizer Chiefs Actif 106 / 99 40% 1 17.02.2027 -
François Kamano Sochi Actif 116 / 112 40% 1 12.02.2027 -
Oleksii Hutsuliak Polissia Actif 133 / 120 40% 4 10.02.2027 -
Leandro Godoy CSKA Sofia Actif 117 / 111 40% 1 07.02.2027 -
Edarlyn Reyes Arsenal Tula Actif 105 / 113 40% 1 06.02.2027 -
Patrick Schmidt Tarxien Rainbows Actif 100 / 105 40% 1 05.02.2027 -
Marin Benko Zadar Actif 129 / 126 40% 1 03.02.2027 -
Iqraam Rayners Mamelodi Sundowns Actif 130 / 141 40% 4 02.02.2027 -
Ryan Hedges Derby County Actif 121 / 112 40% 1 26.01.2027 -
Matei Goga Universitatea Craiova Actif 75 / 89 72% 1 25.01.2027 Approuver
Kristoffer Zachariassen Ferencvaros Actif 121 / 128 40% 1 18.01.2027 -
Bojan Radulović Huddersfield Town Actif 116 / 120 40% 3 01.01.2027 -
Maicon Levski Actif 126 / 131 40% 2 28.12.2026 -
Ştefan Bană ND Gorica Actif 91 / 97 40% 2 27.12.2026 -
Andreiaş Calcan Lucko Actif 105 / 100 40% 2 26.12.2026 -
Zoran Mitrov Universitatea Craiova Actif 112 / 108 40% 2 26.12.2026 -
Oussama Idrissi Ferencvaros Actif 135 / 132 40% 6 25.12.2026 -
Heriberto Tavares Universitatea Craiova Actif 107 / 111 40% 1 25.12.2026 -
Lebohang Maboe Kaizer Chiefs Actif 116 / 125 40% 2 24.12.2026 -
Mduduzi Shabalala Kaizer Chiefs Actif 108 / 107 40% 2 23.12.2026 -
Mamoudou Karamoko Dinamo Bucharest Actif 117 / 117 40% 12 22.12.2026 -
Manu Nieto Andorra Actif 112 / 116 40% 1 22.12.2026 -
Thulani Mabaso Chippa United Actif 115 / 118 40% 1 22.12.2026 -
Nduduzo Sibiya Golden Arrows Actif 109 / 122 40% 2 20.12.2026 -
Jonathan Okoronkwo Torpedo Moscow Actif 102 / 106 40% 1 20.12.2026 -
Artem Slesar Zorya Actif 118 / 107 40% 1 18.12.2026 -
Lebo Mothiba Mamelodi Sundowns Actif 118 / 106 40% 1 17.12.2026 -
Velemseni Ndwandwe Golden Arrows Actif 101 / 98 40% 1 17.12.2026 -
Julio Alonso Huesca Actif 115 / 127 40% 1 17.12.2026 -
Cătălin Cîrjan Dinamo Bucharest Actif 120 / 115 40% 3 16.12.2026 -
Otar Kiteishvili Sturm Graz Actif 129 / 134 40% 1 16.12.2026 -
Borislav Tsonev CSKA 1948 Actif 115 / 107 40% 1 13.12.2026 -
Jens Petter Hauge Bodo/Glimt Actif 130 / 136 40% 3 12.12.2026 -
Alberto Soro Dinamo Bucharest Actif 124 / 108 40% 5 11.12.2026 -
Alin Fică CFR Cluj Actif 115 / 127 40% 2 10.12.2026 -
Ştefan Baiaram Universitatea Craiova Perdu 129 / 121 40% 5 09.12.2026 -
Denzel Jubitana Neftchi Actif 115 / 118 40% 1 09.12.2026 -
Leo Goglichidze Rodina Actif 114 / 116 40% 1 09.12.2026 -
Alexandru Cicâldău Universitatea Craiova Actif 121 / 125 40% 2 08.12.2026 -
Ştefan Bodişteanu Botosani Actif 112 / 111 40% 1 08.12.2026 -
Reda Khadra Qarabag Actif 142 / 140 40% 1 07.12.2026 Plus d'infos
Meriton Korenica CFR Cluj Actif 131 / 133 40% 4 06.12.2026 -
Ádin Molnár MTK Budapest Actif 115 / 109 40% 2 05.12.2026 -
Itumeleng Mkhize Platinum Stars Actif 122 / 116 40% 2 05.12.2026 -
Ammar Ramadan DAC Dunajska Streda Actif 126 / 128 40% 3 04.12.2026 -
Daniil Agureev Amkar Actif 92 / 81 40% 1 03.12.2026 -
Seedy Jatta Sturm Graz Actif 118 / 116 40% 2 02.12.2026 -
Marius Corbu Bekescsaba Actif 95 / 99 40% 1 30.11.2026 -
Vegard Erlien Tromso Actif 132 / 131 40% 2 29.11.2026 -
Martins Júnior Zira Actif 110 / 113 40% 1 29.11.2026 -
Daniel Harvie Wycombe Wanderers Actif 114 / 111 40% 1 29.11.2026 -
Oday Dabbagh Zamalek Actif 97 / 96 40% 1 29.11.2026 -
Bernard Tekpetey Ludogorets Actif 123 / 132 40% 2 26.11.2026 -
Natanaël Thio Petrolul Actif 113 / 106 40% 1 26.11.2026 -
Achraf Bencharki Rapid Wien Actif 127 / 117 40% 1 25.11.2026 -
Bahlul Mammadov Inter Actif 107 / 104 40% 3 23.11.2026 -
Cristian Mihai Dinamo Bucharest Actif 107 / 103 40% 1 23.11.2026 -
Carlos Paraco Metalist Actif 109 / 109 40% 1 23.11.2026 -
Tshepang Moremi Orlando Pirates Actif 125 / 105 40% 1 18.11.2026 -
Aldair Ferreira Astra Actif 107 / 106 40% 1 18.11.2026 -
Carlos Mora Universitatea Craiova Actif 126 / 123 40% 1 16.11.2026 -
Sebastian Mailat Botosani Actif 117 / 119 40% 1 14.11.2026 -
Paul Nita Astra Perdu 103 / 98 40% 1 14.11.2026 Plus d'infos
Tomás Chancalay Minnesota United FC Actif 115 / 113 40% 1 14.11.2026 -
Milán Tóth Vasas Actif 112 / 115 40% 1 13.11.2026 -
Assad Al Hamlawi FCSB Actif 121 / 111 40% 1 10.11.2026 -
Jesper Cornelius IK Start Actif 97 / 109 40% 1 10.11.2026 -
Matej Trusa DAC Dunajska Streda Actif 109 / 107 40% 1 10.11.2026 -
Chinedu Geoffrey Krylya Sovetov Actif 117 / 116 40% 1 10.11.2026 -
Liel Abada Charlotte Football Club Actif 125 / 140 40% 2 09.11.2026 -
Krisztofer Horváth Ujpest Actif 113 / 113 40% 1 09.11.2026 -
Johannes Eggestein Austria Wien Actif 133 / 131 40% 1 07.11.2026 -
Ola Brynhildsen Bodo/Glimt Actif 135 / 136 40% 1 07.11.2026 -
Jerome Karelse Golden Arrows Actif 92 / 93 40% 1 07.11.2026 -
Andrei Cordea CFR Cluj Actif 120 / 118 40% 1 04.11.2026 -
Aljoša Matko Ujpest Actif 113 / 119 40% 1 04.11.2026 -
Isaac Matondo Koper Actif 109 / 105 40% 3 01.11.2026 -
Yegor Golenkov Rostov Actif 119 / 122 40% 1 30.10.2026 Plus d'infos
Eren Aydın Zira Actif 118 / 121 40% 1 30.10.2026 -
Vladimir Nikolov Slavia Sofia Actif 112 / 110 40% 2 29.10.2026 -
Chuchu Ramírez Nacional Actif 137 / 130 40% 2 26.10.2026 -
Marko Brest Olimpija Ljubljana Actif 109 / 108 40% 1 25.10.2026 -
Breel Embolo Atlanta United FC Actif 148 / 137 40% 1 24.10.2026 -
Claudy M'Buyi Rapid Wien Actif 111 / 117 40% 1 24.10.2026 -
Iuri Medeiros Ujpest Actif 118 / 115 40% 1 23.10.2026 -
Dorin Dragusin Pandurii Actif 117 / 122 40% 1 23.10.2026 -
Yeangel Montero Naxxar Lions Actif 102 / 97 40% 1 20.10.2026 -
Musa Qurbanlı Qarabag Actif 120 / 113 40% 1 20.10.2026 -
Vladislav Sarveli Nizhniy Novgorod Actif 107 / 110 40% 1 16.10.2026 -
Matthias Verreth Dinamo Bucharest Actif 125 / 113 40% 2 15.10.2026 -
Andrei Dumiter Botosani Actif 102 / 92 40% 1 15.10.2026 -
Marlon Mustapha Altach Actif 108 / 115 40% 1 13.10.2026 -
Philipp Alaba Austria Wien Actif 127 / 124 40% 1 12.10.2026 -
Sveinn Aron Guðjohnsen Vikingur Actif 112 / 121 40% 3 11.10.2026 -
Simon Elisor Universitatea Craiova Actif 126 / 114 40% 2 10.10.2026 -
Pedro Marques Apollon Actif 121 / 109 40% 1 10.10.2026 -
Renaldo Cephas Qarabag Actif 110 / 120 40% 2 09.10.2026 -
Vyacheslav Grulev Nizhniy Novgorod Actif 113 / 118 40% 1 09.10.2026 -
Radek Šiler Podbrezova Actif 111 / 111 40% 1 06.10.2026 -
Dominik Kocsis Debrecen Actif 104 / 113 40% 1 06.10.2026 -
Dávid Ďuriš Rosenborg Actif 111 / 117 40% 1 05.10.2026 -
Marcelo Torres Gimnasia La Plata Actif 115 / 110 40% 2 04.10.2026 -
Oscar Osorio Atletico Venezuela Actif 112 / 128 40% 1 04.10.2026 -
Alexandr Rudenko Lokomotiv Moscow Actif 117 / 112 40% 1 03.10.2026 -
Alexei Dominguez Pachuca Actif 104 / 112 40% 1 03.10.2026 -
Veljko Birmančević Ferencvaros Actif 136 / 124 40% 2 01.10.2026 -
Enzo Larrosa Independiente Medellin Actif 106 / 97 40% 1 01.10.2026 -
Federico Girotti Alianza Lima Actif 126 / 128 40% 1 29.09.2026 -
Paul Ngongo Aalesund Actif 111 / 88 40% 1 28.09.2026 -
Elias Hoff Melkersen Stromsgodset Actif 104 / 117 40% 1 27.09.2026 -
Alexandru Pop Dinamo Bucharest Actif 96 / 107 40% 2 26.09.2026 -
Gamid Agalarov Dinamo Makhachkala Actif 111 / 107 40% 1 25.09.2026 -
Fabricio Oviedo Rosario Central Actif 116 / 110 40% 1 24.09.2026 -
Andreas Helmersen Bodo/Glimt Actif 119 / 134 40% 1 24.09.2026 -
Benjamin Tetteh NK Maribor Actif 110 / 113 40% 1 21.09.2026 -
Timur Suleimanov Rostov Actif 113 / 110 40% 1 20.09.2026 -
Emil Breivik Molde Actif 135 / 143 40% 1 20.09.2026 -
Antonio Galeano Remo Stars Actif 128 / 115 40% 1 20.09.2026 -
Hervin Ongenda Botosani Actif 113 / 114 40% 1 19.09.2026 -
Ramiro Ruiz Rodríguez Atlético Tucumán Actif 133 / 135 40% 2 17.09.2026 -
Asanele Velebayi Kaizer Chiefs Actif 111 / 94 40% 1 14.09.2026 -
George Puşcaş Dinamo Bucharest Actif 129 / 125 40% 2 13.09.2026 -
Relebohile Mofokeng Orlando Pirates Actif 108 / 129 40% 1 10.09.2026 -
Yanela Mbuthuma Orlando Pirates Actif 96 / 120 40% 1 09.09.2026 -
David Kalokoh Ajax Actif 114 / 127 40% 1 09.09.2026 -
Marcos Camarda Santiago Wanderers Actif 115 / 116 40% 1 31.08.2026 -
Mamadou Thiam FCSB Actif 115 / 115 40% 1 24.08.2026 -
Hugo Cuypers Monterrey Actif 126 / 129 40% 1 01.08.2026 -
Lisandro Cabrera Maipú Actif 125 / 119 40% 1 01.08.2026 -
Joe Gelhardt Hull City Actif 125 / 121 40% 1 01.08.2026 -